sensor_id;sensor_type;location;lat;lon;timestamp;P1;durP1;ratioP1;P2;durP2;ratioP2
9240;SDS011;53485;49.326;9.738;2023-03-13T00:01:40;7.27;;;1.57;;
9240;SDS011;53485;49.326;9.738;2023-03-13T00:04:07;10.80;;;1.63;;
9240;SDS011;53485;49.326;9.738;2023-03-13T00:06:35;9.03;;;1.60;;
9240;SDS011;53485;49.326;9.738;2023-03-13T00:09:01;9.13;;;1.57;;
9240;SDS011;53485;49.326;9.738;2023-03-13T00:11:27;9.50;;;1.60;;
9240;SDS011;53485;49.326;9.738;2023-03-13T00:13:55;6.93;;;1.47;;
9240;SDS011;53485;49.326;9.738;2023-03-13T00:16:22;5.90;;;1.40;;
9240;SDS011;53485;49.326;9.738;2023-03-13T00:18:49;10.83;;;1.47;;
9240;SDS011;53485;49.326;9.738;2023-03-13T00:21:15;9.70;;;1.50;;
9240;SDS011;53485;49.326;9.738;2023-03-13T00:23:42;10.63;;;1.40;;
9240;SDS011;53485;49.326;9.738;2023-03-13T00:26:09;7.93;;;1.40;;
9240;SDS011;53485;49.326;9.738;2023-03-13T00:28:36;6.87;;;1.70;;
9240;SDS011;53485;49.326;9.738;2023-03-13T00:31:03;7.40;;;1.30;;
9240;SDS011;53485;49.326;9.738;2023-03-13T00:33:32;7.67;;;1.17;;
9240;SDS011;53485;49.326;9.738;2023-03-13T00:35:59;10.37;;;1.30;;
9240;SDS011;53485;49.326;9.738;2023-03-13T00:38:26;12.37;;;1.80;;
9240;SDS011;53485;49.326;9.738;2023-03-13T00:41:07;6.00;;;1.23;;
9240;SDS011;53485;49.326;9.738;2023-03-13T00:43:33;7.27;;;1.40;;
9240;SDS011;53485;49.326;9.738;2023-03-13T00:46:00;6.07;;;1.53;;
9240;SDS011;53485;49.326;9.738;2023-03-13T00:48:26;11.07;;;1.73;;
9240;SDS011;53485;49.326;9.738;2023-03-13T00:50:54;10.63;;;1.63;;
9240;SDS011;53485;49.326;9.738;2023-03-13T00:53:21;7.97;;;2.03;;
9240;SDS011;53485;49.326;9.738;2023-03-13T00:55:50;6.27;;;1.33;;
9240;SDS011;53485;49.326;9.738;2023-03-13T00:58:17;12.37;;;1.63;;
9240;SDS011;53485;49.326;9.738;2023-03-13T01:00:44;8.53;;;1.53;;
9240;SDS011;53485;49.326;9.738;2023-03-13T01:03:11;11.73;;;1.50;;
9240;SDS011;53485;49.326;9.738;2023-03-13T01:05:39;12.27;;;2.37;;
9240;SDS011;53485;49.326;9.738;2023-03-13T01:08:06;4.83;;;1.20;;
9240;SDS011;53485;49.326;9.738;2023-03-13T01:10:33;8.53;;;2.07;;
9240;SDS011;53485;49.326;9.738;2023-03-13T01:13:00;8.40;;;1.17;;
9240;SDS011;53485;49.326;9.738;2023-03-13T01:15:27;6.03;;;1.40;;
9240;SDS011;53485;49.326;9.738;2023-03-13T01:17:55;8.37;;;1.30;;
9240;SDS011;53485;49.326;9.738;2023-03-13T01:20:22;6.73;;;1.70;;
9240;SDS011;53485;49.326;9.738;2023-03-13T01:22:50;8.07;;;1.70;;
9240;SDS011;53485;49.326;9.738;2023-03-13T01:25:17;8.73;;;1.60;;
9240;SDS011;53485;49.326;9.738;2023-03-13T01:27:44;7.13;;;1.43;;
9240;SDS011;53485;49.326;9.738;2023-03-13T01:30:12;10.97;;;1.80;;
9240;SDS011;53485;49.326;9.738;2023-03-13T01:32:39;15.30;;;2.10;;
9240;SDS011;53485;49.326;9.738;2023-03-13T01:35:07;8.40;;;1.30;;
9240;SDS011;53485;49.326;9.738;2023-03-13T01:37:34;9.57;;;1.13;;
9240;SDS011;53485;49.326;9.738;2023-03-13T01:40:02;11.50;;;1.60;;
9240;SDS011;53485;49.326;9.738;2023-03-13T01:42:29;8.97;;;1.50;;
9240;SDS011;53485;49.326;9.738;2023-03-13T01:44:57;10.30;;;1.20;;
9240;SDS011;53485;49.326;9.738;2023-03-13T01:47:24;11.10;;;1.40;;
9240;SDS011;53485;49.326;9.738;2023-03-13T01:49:51;9.13;;;1.27;;
9240;SDS011;53485;49.326;9.738;2023-03-13T01:52:19;9.20;;;1.70;;
9240;SDS011;53485;49.326;9.738;2023-03-13T01:54:50;9.43;;;2.10;;
9240;SDS011;53485;49.326;9.738;2023-03-13T01:57:24;11.97;;;1.73;;
9240;SDS011;53485;49.326;9.738;2023-03-13T01:59:52;11.50;;;1.50;;
9240;SDS011;53485;49.326;9.738;2023-03-13T02:02:18;5.40;;;1.43;;
9240;SDS011;53485;49.326;9.738;2023-03-13T02:04:46;10.67;;;1.23;;
9240;SDS011;53485;49.326;9.738;2023-03-13T02:07:15;14.00;;;1.73;;
9240;SDS011;53485;49.326;9.738;2023-03-13T02:09:44;6.40;;;1.17;;
9240;SDS011;53485;49.326;9.738;2023-03-13T02:12:12;6.63;;;1.43;;
9240;SDS011;53485;49.326;9.738;2023-03-13T02:14:38;11.33;;;1.43;;
9240;SDS011;53485;49.326;9.738;2023-03-13T02:17:05;7.87;;;1.10;;
9240;SDS011;53485;49.326;9.738;2023-03-13T02:19:34;12.47;;;1.87;;
9240;SDS011;53485;49.326;9.738;2023-03-13T02:22:28;10.37;;;1.50;;
9240;SDS011;53485;49.326;9.738;2023-03-13T02:24:57;13.87;;;2.00;;
9240;SDS011;53485;49.326;9.738;2023-03-13T02:27:27;8.13;;;1.23;;
9240;SDS011;53485;49.326;9.738;2023-03-13T02:29:55;8.10;;;1.57;;
9240;SDS011;53485;49.326;9.738;2023-03-13T02:32:22;5.63;;;1.40;;
9240;SDS011;53485;49.326;9.738;2023-03-13T02:34:50;7.93;;;1.57;;
9240;SDS011;53485;49.326;9.738;2023-03-13T02:37:16;9.37;;;1.30;;
9240;SDS011;53485;49.326;9.738;2023-03-13T02:39:44;11.03;;;1.93;;
9240;SDS011;53485;49.326;9.738;2023-03-13T02:42:09;9.83;;;1.20;;
9240;SDS011;53485;49.326;9.738;2023-03-13T02:44:37;9.40;;;1.47;;
9240;SDS011;53485;49.326;9.738;2023-03-13T02:47:04;7.07;;;1.57;;
9240;SDS011;53485;49.326;9.738;2023-03-13T02:49:31;9.13;;;1.40;;
9240;SDS011;53485;49.326;9.738;2023-03-13T02:52:08;5.13;;;1.00;;
9240;SDS011;53485;49.326;9.738;2023-03-13T02:54:29;9.43;;;1.40;;
9240;SDS011;53485;49.326;9.738;2023-03-13T02:56:54;7.10;;;1.00;;
9240;SDS011;53485;49.326;9.738;2023-03-13T02:59:21;7.60;;;1.53;;
9240;SDS011;53485;49.326;9.738;2023-03-13T03:01:47;8.10;;;1.10;;
9240;SDS011;53485;49.326;9.738;2023-03-13T03:04:15;8.33;;;1.13;;
9240;SDS011;53485;49.326;9.738;2023-03-13T03:06:42;7.40;;;1.20;;
9240;SDS011;53485;49.326;9.738;2023-03-13T03:09:10;8.23;;;1.33;;
9240;SDS011;53485;49.326;9.738;2023-03-13T03:11:37;8.80;;;1.30;;
9240;SDS011;53485;49.326;9.738;2023-03-13T03:14:04;7.07;;;0.93;;
9240;SDS011;53485;49.326;9.738;2023-03-13T03:16:31;8.83;;;1.07;;
9240;SDS011;53485;49.326;9.738;2023-03-13T03:18:59;6.93;;;1.30;;
9240;SDS011;53485;49.326;9.738;2023-03-13T03:21:26;6.90;;;1.23;;
9240;SDS011;53485;49.326;9.738;2023-03-13T03:23:53;7.13;;;1.07;;
9240;SDS011;53485;49.326;9.738;2023-03-13T03:26:21;5.13;;;1.00;;
9240;SDS011;53485;49.326;9.738;2023-03-13T03:28:48;7.17;;;1.10;;
9240;SDS011;53485;49.326;9.738;2023-03-13T03:31:15;9.50;;;1.10;;
9240;SDS011;53485;49.326;9.738;2023-03-13T03:33:42;6.30;;;1.10;;
9240;SDS011;53485;49.326;9.738;2023-03-13T03:36:10;6.83;;;1.20;;
9240;SDS011;53485;49.326;9.738;2023-03-13T03:38:35;5.03;;;1.10;;
9240;SDS011;53485;49.326;9.738;2023-03-13T03:41:03;7.30;;;1.30;;
9240;SDS011;53485;49.326;9.738;2023-03-13T03:43:30;7.83;;;0.90;;
9240;SDS011;53485;49.326;9.738;2023-03-13T03:45:57;8.90;;;0.90;;
9240;SDS011;53485;49.326;9.738;2023-03-13T03:48:24;5.83;;;1.47;;
9240;SDS011;53485;49.326;9.738;2023-03-13T03:50:52;5.50;;;0.97;;
9240;SDS011;53485;49.326;9.738;2023-03-13T03:53:19;5.50;;;1.00;;
9240;SDS011;53485;49.326;9.738;2023-03-13T03:55:46;5.83;;;1.00;;
9240;SDS011;53485;49.326;9.738;2023-03-13T03:58:13;7.27;;;1.23;;
9240;SDS011;53485;49.326;9.738;2023-03-13T04:00:43;6.53;;;0.90;;
9240;SDS011;53485;49.326;9.738;2023-03-13T04:03:09;7.87;;;1.10;;
9240;SDS011;53485;49.326;9.738;2023-03-13T04:05:36;5.73;;;1.00;;
9240;SDS011;53485;49.326;9.738;2023-03-13T04:08:03;5.77;;;1.10;;
9240;SDS011;53485;49.326;9.738;2023-03-13T04:10:31;6.63;;;0.90;;
9240;SDS011;53485;49.326;9.738;2023-03-13T04:12:58;6.53;;;0.93;;
9240;SDS011;53485;49.326;9.738;2023-03-13T04:15:26;4.93;;;0.83;;
9240;SDS011;53485;49.326;9.738;2023-03-13T04:17:53;3.87;;;0.70;;
9240;SDS011;53485;49.326;9.738;2023-03-13T04:20:20;8.60;;;0.83;;
9240;SDS011;53485;49.326;9.738;2023-03-13T04:22:48;7.13;;;0.83;;
9240;SDS011;53485;49.326;9.738;2023-03-13T04:25:15;2.43;;;0.73;;
9240;SDS011;53485;49.326;9.738;2023-03-13T04:27:42;5.93;;;0.70;;
9240;SDS011;53485;49.326;9.738;2023-03-13T04:30:10;4.77;;;0.70;;
9240;SDS011;53485;49.326;9.738;2023-03-13T04:32:38;4.30;;;0.87;;
9240;SDS011;53485;49.326;9.738;2023-03-13T04:35:05;4.40;;;1.00;;
9240;SDS011;53485;49.326;9.738;2023-03-13T04:37:33;3.53;;;0.60;;
9240;SDS011;53485;49.326;9.738;2023-03-13T04:40:00;4.43;;;0.90;;
9240;SDS011;53485;49.326;9.738;2023-03-13T04:42:27;4.40;;;0.80;;
9240;SDS011;53485;49.326;9.738;2023-03-13T04:44:54;2.97;;;0.60;;
9240;SDS011;53485;49.326;9.738;2023-03-13T04:47:22;5.70;;;0.60;;
9240;SDS011;53485;49.326;9.738;2023-03-13T04:49:49;3.30;;;0.73;;
9240;SDS011;53485;49.326;9.738;2023-03-13T04:52:17;2.50;;;0.73;;
9240;SDS011;53485;49.326;9.738;2023-03-13T04:54:44;5.43;;;0.83;;
9240;SDS011;53485;49.326;9.738;2023-03-13T04:57:11;4.37;;;0.70;;
9240;SDS011;53485;49.326;9.738;2023-03-13T04:59:39;3.13;;;0.90;;
9240;SDS011;53485;49.326;9.738;2023-03-13T05:02:06;6.07;;;0.90;;
9240;SDS011;53485;49.326;9.738;2023-03-13T05:04:33;3.27;;;0.70;;
9240;SDS011;53485;49.326;9.738;2023-03-13T05:07:00;3.30;;;0.70;;
9240;SDS011;53485;49.326;9.738;2023-03-13T05:09:27;4.53;;;1.00;;
9240;SDS011;53485;49.326;9.738;2023-03-13T05:11:55;4.00;;;0.70;;
9240;SDS011;53485;49.326;9.738;2023-03-13T05:14:22;4.63;;;0.90;;
9240;SDS011;53485;49.326;9.738;2023-03-13T05:16:50;4.17;;;0.60;;
9240;SDS011;53485;49.326;9.738;2023-03-13T05:19:17;3.93;;;0.70;;
9240;SDS011;53485;49.326;9.738;2023-03-13T05:21:45;3.07;;;0.60;;
9240;SDS011;53485;49.326;9.738;2023-03-13T05:24:12;4.10;;;0.70;;
9240;SDS011;53485;49.326;9.738;2023-03-13T05:26:39;1.60;;;0.63;;
9240;SDS011;53485;49.326;9.738;2023-03-13T05:29:07;2.73;;;0.80;;
9240;SDS011;53485;49.326;9.738;2023-03-13T05:31:34;5.63;;;0.50;;
9240;SDS011;53485;49.326;9.738;2023-03-13T05:34:02;1.80;;;0.40;;
9240;SDS011;53485;49.326;9.738;2023-03-13T05:36:29;2.23;;;0.57;;
9240;SDS011;53485;49.326;9.738;2023-03-13T05:38:56;3.00;;;0.60;;
9240;SDS011;53485;49.326;9.738;2023-03-13T05:41:24;2.97;;;0.60;;
9240;SDS011;53485;49.326;9.738;2023-03-13T05:43:51;2.57;;;0.53;;
9240;SDS011;53485;49.326;9.738;2023-03-13T05:46:19;1.13;;;0.47;;
9240;SDS011;53485;49.326;9.738;2023-03-13T05:48:46;1.90;;;0.47;;
9240;SDS011;53485;49.326;9.738;2023-03-13T05:51:13;2.30;;;0.60;;
9240;SDS011;53485;49.326;9.738;2023-03-13T05:53:41;2.67;;;0.50;;
9240;SDS011;53485;49.326;9.738;2023-03-13T05:56:08;1.87;;;0.50;;
9240;SDS011;53485;49.326;9.738;2023-03-13T05:58:35;2.13;;;0.47;;
9240;SDS011;53485;49.326;9.738;2023-03-13T06:01:05;2.67;;;0.40;;
9240;SDS011;53485;49.326;9.738;2023-03-13T06:03:31;2.30;;;0.40;;
9240;SDS011;53485;49.326;9.738;2023-03-13T06:05:59;2.63;;;0.33;;
9240;SDS011;53485;49.326;9.738;2023-03-13T06:08:26;2.20;;;0.40;;
9240;SDS011;53485;49.326;9.738;2023-03-13T06:10:53;3.17;;;0.43;;
9240;SDS011;53485;49.326;9.738;2023-03-13T06:13:21;0.90;;;0.40;;
9240;SDS011;53485;49.326;9.738;2023-03-13T06:15:49;1.60;;;0.30;;
9240;SDS011;53485;49.326;9.738;2023-03-13T06:18:16;1.73;;;0.40;;
9240;SDS011;53485;49.326;9.738;2023-03-13T06:20:44;1.20;;;0.30;;
9240;SDS011;53485;49.326;9.738;2023-03-13T06:23:11;1.50;;;0.30;;
9240;SDS011;53485;49.326;9.738;2023-03-13T06:25:38;0.60;;;0.20;;
9240;SDS011;53485;49.326;9.738;2023-03-13T06:28:06;3.00;;;0.30;;
9240;SDS011;53485;49.326;9.738;2023-03-13T06:30:33;1.20;;;0.50;;
9240;SDS011;53485;49.326;9.738;2023-03-13T06:33:00;3.30;;;0.40;;
9240;SDS011;53485;49.326;9.738;2023-03-13T06:35:28;1.17;;;0.40;;
9240;SDS011;53485;49.326;9.738;2023-03-13T06:37:55;2.43;;;0.47;;
9240;SDS011;53485;49.326;9.738;2023-03-13T06:40:22;0.43;;;0.27;;
9240;SDS011;53485;49.326;9.738;2023-03-13T06:42:50;0.53;;;0.30;;
9240;SDS011;53485;49.326;9.738;2023-03-13T06:45:17;0.40;;;0.30;;
9240;SDS011;53485;49.326;9.738;2023-03-13T06:47:44;2.03;;;0.30;;
9240;SDS011;53485;49.326;9.738;2023-03-13T06:50:11;1.13;;;0.33;;
9240;SDS011;53485;49.326;9.738;2023-03-13T06:52:39;0.77;;;0.30;;
9240;SDS011;53485;49.326;9.738;2023-03-13T06:55:14;1.45;;;0.30;;
9240;SDS011;53485;49.326;9.738;2023-03-13T06:57:42;0.37;;;0.30;;
9240;SDS011;53485;49.326;9.738;2023-03-13T07:00:09;0.40;;;0.30;;
9240;SDS011;53485;49.326;9.738;2023-03-13T07:02:36;1.87;;;0.20;;
9240;SDS011;53485;49.326;9.738;2023-03-13T07:05:04;1.23;;;0.30;;
9240;SDS011;53485;49.326;9.738;2023-03-13T07:07:32;2.10;;;0.30;;
9240;SDS011;53485;49.326;9.738;2023-03-13T07:10:00;0.40;;;0.30;;
9240;SDS011;53485;49.326;9.738;2023-03-13T07:12:27;3.03;;;0.30;;
9240;SDS011;53485;49.326;9.738;2023-03-13T07:14:54;0.30;;;0.30;;
9240;SDS011;53485;49.326;9.738;2023-03-13T07:17:21;0.30;;;0.20;;
9240;SDS011;53485;49.326;9.738;2023-03-13T07:19:48;0.47;;;0.40;;
9240;SDS011;53485;49.326;9.738;2023-03-13T07:22:16;1.90;;;0.23;;
9240;SDS011;53485;49.326;9.738;2023-03-13T07:24:43;1.23;;;0.20;;
9240;SDS011;53485;49.326;9.738;2023-03-13T07:27:11;1.07;;;0.27;;
9240;SDS011;53485;49.326;9.738;2023-03-13T07:29:38;0.73;;;0.20;;
9240;SDS011;53485;49.326;9.738;2023-03-13T07:32:06;1.60;;;0.20;;
9240;SDS011;53485;49.326;9.738;2023-03-13T07:34:33;0.43;;;0.20;;
9240;SDS011;53485;49.326;9.738;2023-03-13T07:37:01;0.40;;;0.13;;
9240;SDS011;53485;49.326;9.738;2023-03-13T07:39:28;0.20;;;0.20;;
9240;SDS011;53485;49.326;9.738;2023-03-13T07:41:55;0.30;;;0.20;;
9240;SDS011;53485;49.326;9.738;2023-03-13T07:44:23;0.73;;;0.20;;
9240;SDS011;53485;49.326;9.738;2023-03-13T07:46:50;0.10;;;0.10;;
9240;SDS011;53485;49.326;9.738;2023-03-13T07:49:18;0.37;;;0.10;;
9240;SDS011;53485;49.326;9.738;2023-03-13T07:51:45;1.60;;;0.20;;
9240;SDS011;53485;49.326;9.738;2023-03-13T07:54:12;1.93;;;0.20;;
9240;SDS011;53485;49.326;9.738;2023-03-13T07:56:39;1.53;;;0.10;;
9240;SDS011;53485;49.326;9.738;2023-03-13T07:59:06;0.50;;;0.13;;
9240;SDS011;53485;49.326;9.738;2023-03-13T08:01:33;0.57;;;0.20;;
9240;SDS011;53485;49.326;9.738;2023-03-13T08:04:01;0.10;;;0.10;;
9240;SDS011;53485;49.326;9.738;2023-03-13T08:06:28;0.80;;;0.33;;
9240;SDS011;53485;49.326;9.738;2023-03-13T08:08:55;0.20;;;0.20;;
9240;SDS011;53485;49.326;9.738;2023-03-13T08:11:22;1.23;;;0.30;;
9240;SDS011;53485;49.326;9.738;2023-03-13T08:13:49;0.80;;;0.20;;
9240;SDS011;53485;49.326;9.738;2023-03-13T08:16:16;0.50;;;0.20;;
9240;SDS011;53485;49.326;9.738;2023-03-13T08:18:43;0.10;;;0.10;;
9240;SDS011;53485;49.326;9.738;2023-03-13T08:21:10;0.57;;;0.10;;
9240;SDS011;53485;49.326;9.738;2023-03-13T08:23:36;0.30;;;0.10;;
9240;SDS011;53485;49.326;9.738;2023-03-13T08:26:05;1.70;;;0.10;;
9240;SDS011;53485;49.326;9.738;2023-03-13T08:28:32;0.20;;;0.10;;
9240;SDS011;53485;49.326;9.738;2023-03-13T08:31:05;0.60;;;0.20;;
9240;SDS011;53485;49.326;9.738;2023-03-13T08:33:25;0.27;;;0.10;;
9240;SDS011;53485;49.326;9.738;2023-03-13T08:35:53;0.53;;;0.10;;
9240;SDS011;53485;49.326;9.738;2023-03-13T08:38:20;0.30;;;0.13;;
9240;SDS011;53485;49.326;9.738;2023-03-13T08:40:47;0.40;;;0.20;;
9240;SDS011;53485;49.326;9.738;2023-03-13T08:43:14;0.20;;;0.20;;
9240;SDS011;53485;49.326;9.738;2023-03-13T08:45:42;0.50;;;0.20;;
9240;SDS011;53485;49.326;9.738;2023-03-13T08:48:09;0.20;;;0.20;;
9240;SDS011;53485;49.326;9.738;2023-03-13T08:50:36;0.10;;;0.10;;
9240;SDS011;53485;49.326;9.738;2023-03-13T08:53:04;1.23;;;0.17;;
9240;SDS011;53485;49.326;9.738;2023-03-13T08:55:31;0.30;;;0.20;;
9240;SDS011;53485;49.326;9.738;2023-03-13T08:57:59;0.20;;;0.20;;
9240;SDS011;53485;49.326;9.738;2023-03-13T09:00:26;0.30;;;0.20;;
9240;SDS011;53485;49.326;9.738;2023-03-13T09:02:55;0.10;;;0.10;;
9240;SDS011;53485;49.326;9.738;2023-03-13T09:05:20;0.10;;;0.10;;
9240;SDS011;53485;49.326;9.738;2023-03-13T09:07:48;0.30;;;0.10;;
9240;SDS011;53485;49.326;9.738;2023-03-13T09:10:15;0.10;;;0.10;;
9240;SDS011;53485;49.326;9.738;2023-03-13T09:12:42;0.57;;;0.20;;
9240;SDS011;53485;49.326;9.738;2023-03-13T09:15:10;0.20;;;0.10;;
9240;SDS011;53485;49.326;9.738;2023-03-13T09:17:37;0.50;;;0.10;;
9240;SDS011;53485;49.326;9.738;2023-03-13T09:20:05;1.50;;;0.10;;
9240;SDS011;53485;49.326;9.738;2023-03-13T09:22:33;0.20;;;0.20;;
9240;SDS011;53485;49.326;9.738;2023-03-13T09:25:00;0.20;;;0.10;;
9240;SDS011;53485;49.326;9.738;2023-03-13T09:27:28;0.30;;;0.20;;
9240;SDS011;53485;49.326;9.738;2023-03-13T09:29:55;0.20;;;0.10;;
9240;SDS011;53485;49.326;9.738;2023-03-13T09:32:22;0.17;;;0.10;;
9240;SDS011;53485;49.326;9.738;2023-03-13T09:34:49;0.90;;;0.20;;
9240;SDS011;53485;49.326;9.738;2023-03-13T09:37:17;0.20;;;0.13;;
9240;SDS011;53485;49.326;9.738;2023-03-13T09:39:44;0.67;;;0.10;;
9240;SDS011;53485;49.326;9.738;2023-03-13T09:42:17;0.53;;;0.20;;
9240;SDS011;53485;49.326;9.738;2023-03-13T09:47:38;0.30;;;0.20;;
9240;SDS011;53485;49.326;9.738;2023-03-13T09:52:37;0.97;;;0.30;;
9240;SDS011;53485;49.326;9.738;2023-03-13T09:55:04;0.60;;;0.30;;
9240;SDS011;53485;49.326;9.738;2023-03-13T09:57:47;0.40;;;0.20;;
9240;SDS011;53485;49.326;9.738;2023-03-13T10:00:06;1.47;;;0.40;;
9240;SDS011;53485;49.326;9.738;2023-03-13T10:02:43;1.13;;;0.30;;
9240;SDS011;53485;49.326;9.738;2023-03-13T10:05:13;1.83;;;0.37;;
9240;SDS011;53485;49.326;9.738;2023-03-13T10:07:37;0.50;;;0.30;;
9240;SDS011;53485;49.326;9.738;2023-03-13T10:10:09;0.40;;;0.30;;
9240;SDS011;53485;49.326;9.738;2023-03-13T10:12:36;1.13;;;0.30;;
9240;SDS011;53485;49.326;9.738;2023-03-13T10:17:53;1.13;;;0.30;;
9240;SDS011;53485;49.326;9.738;2023-03-13T10:20:24;0.77;;;0.50;;
9240;SDS011;53485;49.326;9.738;2023-03-13T10:22:56;1.20;;;0.37;;
9240;SDS011;53485;49.326;9.738;2023-03-13T10:25:29;0.40;;;0.30;;
9240;SDS011;53485;49.326;9.738;2023-03-13T10:27:57;1.00;;;0.50;;
9240;SDS011;53485;49.326;9.738;2023-03-13T10:30:25;1.73;;;0.43;;
9240;SDS011;53485;49.326;9.738;2023-03-13T10:32:53;1.03;;;0.30;;
9240;SDS011;53485;49.326;9.738;2023-03-13T10:35:23;0.60;;;0.30;;
9240;SDS011;53485;49.326;9.738;2023-03-13T10:37:48;0.60;;;0.50;;
9240;SDS011;53485;49.326;9.738;2023-03-13T10:40:22;0.43;;;0.40;;
9240;SDS011;53485;49.326;9.738;2023-03-13T10:42:49;1.17;;;0.60;;
9240;SDS011;53485;49.326;9.738;2023-03-13T10:45:16;1.37;;;0.40;;
9240;SDS011;53485;49.326;9.738;2023-03-13T10:47:42;0.60;;;0.60;;
9240;SDS011;53485;49.326;9.738;2023-03-13T10:50:16;3.37;;;0.60;;
9240;SDS011;53485;49.326;9.738;2023-03-13T10:52:44;1.33;;;0.50;;
9240;SDS011;53485;49.326;9.738;2023-03-13T10:55:11;1.27;;;0.60;;
9240;SDS011;53485;49.326;9.738;2023-03-13T10:57:37;0.60;;;0.60;;
9240;SDS011;53485;49.326;9.738;2023-03-13T11:00:22;1.20;;;0.53;;
9240;SDS011;53485;49.326;9.738;2023-03-13T11:02:37;1.53;;;0.60;;
9240;SDS011;53485;49.326;9.738;2023-03-13T11:07:54;3.57;;;0.60;;
9240;SDS011;53485;49.326;9.738;2023-03-13T11:10:24;1.00;;;0.50;;
9240;SDS011;53485;49.326;9.738;2023-03-13T11:12:50;1.03;;;0.50;;
9240;SDS011;53485;49.326;9.738;2023-03-13T11:15:19;1.47;;;0.70;;
9240;SDS011;53485;49.326;9.738;2023-03-13T11:17:50;3.13;;;0.60;;
9240;SDS011;53485;49.326;9.738;2023-03-13T11:20:24;2.00;;;0.63;;
9240;SDS011;53485;49.326;9.738;2023-03-13T11:25:34;1.33;;;0.70;;
9240;SDS011;53485;49.326;9.738;2023-03-13T11:28:04;3.70;;;0.80;;
9240;SDS011;53485;49.326;9.738;2023-03-13T11:33:37;2.30;;;0.60;;
9240;SDS011;53485;49.326;9.738;2023-03-13T11:36:17;3.53;;;0.70;;
9240;SDS011;53485;49.326;9.738;2023-03-13T11:38:48;2.37;;;0.80;;
9240;SDS011;53485;49.326;9.738;2023-03-13T11:41:21;1.17;;;0.70;;
9240;SDS011;53485;49.326;9.738;2023-03-13T11:44:05;1.07;;;0.80;;
9240;SDS011;53485;49.326;9.738;2023-03-13T11:47:11;2.13;;;0.67;;
9240;SDS011;53485;49.326;9.738;2023-03-13T11:49:28;2.83;;;0.70;;
9240;SDS011;53485;49.326;9.738;2023-03-13T11:51:57;2.13;;;0.73;;
9240;SDS011;53485;49.326;9.738;2023-03-13T11:54:29;1.67;;;0.70;;
9240;SDS011;53485;49.326;9.738;2023-03-13T11:56:52;2.27;;;0.70;;
9240;SDS011;53485;49.326;9.738;2023-03-13T11:59:27;2.07;;;0.70;;
9240;SDS011;53485;49.326;9.738;2023-03-13T12:04:51;0.90;;;0.70;;
9240;SDS011;53485;49.326;9.738;2023-03-13T12:07:26;1.43;;;0.70;;
9240;SDS011;53485;49.326;9.738;2023-03-13T12:10:00;2.53;;;0.80;;
9240;SDS011;53485;49.326;9.738;2023-03-13T12:12:32;1.03;;;0.60;;
9240;SDS011;53485;49.326;9.738;2023-03-13T12:17:57;1.10;;;0.80;;
9240;SDS011;53485;49.326;9.738;2023-03-13T12:20:24;2.20;;;0.80;;
9240;SDS011;53485;49.326;9.738;2023-03-13T12:22:56;1.37;;;0.70;;
9240;SDS011;53485;49.326;9.738;2023-03-13T12:25:24;0.80;;;0.77;;
9240;SDS011;53485;49.326;9.738;2023-03-13T12:27:54;2.57;;;0.80;;
9240;SDS011;53485;49.326;9.738;2023-03-13T12:30:24;2.20;;;0.70;;
9240;SDS011;53485;49.326;9.738;2023-03-13T12:35:48;1.90;;;0.70;;
9240;SDS011;53485;49.326;9.738;2023-03-13T12:38:19;1.67;;;0.70;;
9240;SDS011;53485;49.326;9.738;2023-03-13T12:40:51;0.57;;;0.50;;
9240;SDS011;53485;49.326;9.738;2023-03-13T12:43:22;0.93;;;0.60;;
9240;SDS011;53485;49.326;9.738;2023-03-13T12:46:01;1.33;;;0.70;;
9240;SDS011;53485;49.326;9.738;2023-03-13T12:51:14;1.60;;;0.67;;
9240;SDS011;53485;49.326;9.738;2023-03-13T12:56:40;2.00;;;0.70;;
9240;SDS011;53485;49.326;9.738;2023-03-13T12:59:10;0.63;;;0.57;;
9240;SDS011;53485;49.326;9.738;2023-03-13T13:01:40;2.53;;;0.77;;
9240;SDS011;53485;49.326;9.738;2023-03-13T13:04:06;1.57;;;0.70;;
9240;SDS011;53485;49.326;9.738;2023-03-13T13:09:26;2.00;;;0.73;;
9240;SDS011;53485;49.326;9.738;2023-03-13T13:11:52;2.20;;;0.60;;
9240;SDS011;53485;49.326;9.738;2023-03-13T13:14:52;2.40;;;0.60;;
9240;SDS011;53485;49.326;9.738;2023-03-13T13:17:01;1.83;;;0.70;;
9240;SDS011;53485;49.326;9.738;2023-03-13T13:24:48;1.13;;;0.60;;
9240;SDS011;53485;49.326;9.738;2023-03-13T13:27:26;1.87;;;0.60;;
9240;SDS011;53485;49.326;9.738;2023-03-13T13:29:54;0.77;;;0.60;;
9240;SDS011;53485;49.326;9.738;2023-03-13T13:34:58;2.10;;;0.53;;
9240;SDS011;53485;49.326;9.738;2023-03-13T13:37:23;1.17;;;0.47;;
9240;SDS011;53485;49.326;9.738;2023-03-13T13:39:49;1.20;;;0.60;;
9240;SDS011;53485;49.326;9.738;2023-03-13T13:45:20;0.63;;;0.50;;
9240;SDS011;53485;49.326;9.738;2023-03-13T13:50:21;1.27;;;0.50;;
9240;SDS011;53485;49.326;9.738;2023-03-13T13:52:46;0.90;;;0.50;;
9240;SDS011;53485;49.326;9.738;2023-03-13T13:58:04;0.40;;;0.40;;
9240;SDS011;53485;49.326;9.738;2023-03-13T14:03:15;0.77;;;0.53;;
9240;SDS011;53485;49.326;9.738;2023-03-13T14:05:43;1.57;;;0.50;;
9240;SDS011;53485;49.326;9.738;2023-03-13T14:08:15;1.37;;;0.60;;
9240;SDS011;53485;49.326;9.738;2023-03-13T14:10:42;2.83;;;0.60;;
9240;SDS011;53485;49.326;9.738;2023-03-13T14:13:17;1.30;;;0.60;;
9240;SDS011;53485;49.326;9.738;2023-03-13T14:15:45;0.57;;;0.50;;
9240;SDS011;53485;49.326;9.738;2023-03-13T14:18:18;1.23;;;0.63;;
9240;SDS011;53485;49.326;9.738;2023-03-13T14:20:56;2.40;;;0.70;;
9240;SDS011;53485;49.326;9.738;2023-03-13T14:23:29;0.87;;;0.50;;
9240;SDS011;53485;49.326;9.738;2023-03-13T14:25:55;2.43;;;0.80;;
9240;SDS011;53485;49.326;9.738;2023-03-13T14:28:24;0.97;;;0.50;;
9240;SDS011;53485;49.326;9.738;2023-03-13T14:30:51;0.77;;;0.60;;
9240;SDS011;53485;49.326;9.738;2023-03-13T14:33:16;1.30;;;0.60;;
9240;SDS011;53485;49.326;9.738;2023-03-13T14:35:44;2.43;;;0.57;;
9240;SDS011;53485;49.326;9.738;2023-03-13T14:38:15;1.40;;;0.53;;
9240;SDS011;53485;49.326;9.738;2023-03-13T14:40:41;0.57;;;0.50;;
9240;SDS011;53485;49.326;9.738;2023-03-13T14:45:42;0.93;;;0.50;;
9240;SDS011;53485;49.326;9.738;2023-03-13T14:48:13;0.60;;;0.40;;
9240;SDS011;53485;49.326;9.738;2023-03-13T14:50:47;1.87;;;0.50;;
9240;SDS011;53485;49.326;9.738;2023-03-13T14:53:17;0.80;;;0.60;;
9240;SDS011;53485;49.326;9.738;2023-03-13T14:55:43;0.57;;;0.50;;
9240;SDS011;53485;49.326;9.738;2023-03-13T15:00:53;1.27;;;0.47;;
9240;SDS011;53485;49.326;9.738;2023-03-13T15:03:21;0.50;;;0.50;;
9240;SDS011;53485;49.326;9.738;2023-03-13T15:05:48;1.57;;;0.50;;
9240;SDS011;53485;49.326;9.738;2023-03-13T15:08:16;0.57;;;0.40;;
9240;SDS011;53485;49.326;9.738;2023-03-13T15:10:43;0.63;;;0.50;;
9240;SDS011;53485;49.326;9.738;2023-03-13T15:13:15;3.60;;;0.87;;
9240;SDS011;53485;49.326;9.738;2023-03-13T15:15:42;1.08;;;0.77;;
9240;SDS011;53485;49.326;9.738;2023-03-13T15:18:18;2.53;;;0.57;;
9240;SDS011;53485;49.326;9.738;2023-03-13T15:20:49;1.12;;;0.50;;
9240;SDS011;53485;49.326;9.738;2023-03-13T15:23:17;1.73;;;1.33;;
9240;SDS011;53485;49.326;9.738;2023-03-13T15:25:44;5.40;;;1.00;;
9240;SDS011;53485;49.326;9.738;2023-03-13T15:28:16;1.33;;;0.80;;
9240;SDS011;53485;49.326;9.738;2023-03-13T15:30:44;1.10;;;0.90;;
9240;SDS011;53485;49.326;9.738;2023-03-13T15:33:14;1.50;;;0.95;;
9240;SDS011;53485;49.326;9.738;2023-03-13T15:35:41;3.45;;;0.80;;
9240;SDS011;53485;49.326;9.738;2023-03-13T15:38:11;1.62;;;0.55;;
9240;SDS011;53485;49.326;9.738;2023-03-13T15:40:39;2.45;;;0.50;;
9240;SDS011;53485;49.326;9.738;2023-03-13T15:43:06;1.02;;;0.40;;
9240;SDS011;53485;49.326;9.738;2023-03-13T15:45:34;1.58;;;0.50;;
9240;SDS011;53485;49.326;9.738;2023-03-13T15:48:01;4.53;;;0.73;;
9240;SDS011;53485;49.326;9.738;2023-03-13T15:50:28;1.48;;;0.60;;
9240;SDS011;53485;49.326;9.738;2023-03-13T15:52:57;0.98;;;0.60;;
9240;SDS011;53485;49.326;9.738;2023-03-13T15:55:24;8.23;;;0.80;;
9240;SDS011;53485;49.326;9.738;2023-03-13T15:57:51;1.55;;;0.70;;
9240;SDS011;53485;49.326;9.738;2023-03-13T16:00:20;2.08;;;0.93;;
9240;SDS011;53485;49.326;9.738;2023-03-13T16:02:47;1.60;;;0.60;;
9240;SDS011;53485;49.326;9.738;2023-03-13T16:05:14;0.60;;;0.50;;